createdAt,value
2019-02-19T00:01:38.015Z,67.43
2019-02-19T00:04:09.436Z,68.39
2019-02-19T00:06:41.947Z,68.55
2019-02-19T00:09:13.392Z,67.98
2019-02-19T00:11:44.843Z,68.51
2019-02-19T00:14:16.475Z,68.74
2019-02-19T00:16:47.878Z,68.75
2019-02-19T00:19:19.308Z,68.71
2019-02-19T00:21:50.788Z,68.61
2019-02-19T00:24:22.134Z,68.33
2019-02-19T00:26:53.531Z,68.63
2019-02-19T00:29:24.881Z,68.73
2019-02-19T00:31:56.321Z,68.41
2019-02-19T00:34:27.733Z,68.88
2019-02-19T00:36:59.193Z,68.90
2019-02-19T00:39:30.707Z,68.25
2019-02-19T00:42:02.129Z,68.19
2019-02-19T00:44:33.540Z,68.46
2019-02-19T00:47:05.113Z,67.95
2019-02-19T00:49:40.399Z,68.41
2019-02-19T00:52:11.545Z,67.97
2019-02-19T00:54:42.969Z,68.06
2019-02-19T00:57:14.419Z,68.12
2019-02-19T00:59:45.823Z,68.41
2019-02-19T01:02:17.283Z,68.64
2019-02-19T01:04:48.709Z,69.27
2019-02-19T01:07:20.221Z,69.32
2019-02-19T01:09:51.641Z,68.85
2019-02-19T01:12:23.551Z,68.95
2019-02-19T01:14:54.980Z,68.67
2019-02-19T01:17:26.492Z,68.62
2019-02-19T01:19:57.913Z,68.69
2019-02-19T01:22:29.402Z,68.59
2019-02-19T01:25:00.842Z,68.30
2019-02-19T01:27:34.032Z,68.63
2019-02-19T01:30:06.901Z,68.57
2019-02-19T01:32:38.364Z,68.23
2019-02-19T01:35:10.420Z,68.13
2019-02-19T01:37:41.861Z,68.13
2019-02-19T01:40:13.291Z,67.64
2019-02-19T01:42:44.731Z,67.61
2019-02-19T01:45:18.698Z,67.17
2019-02-19T01:47:50.130Z,67.01
2019-02-19T01:50:21.579Z,66.86
2019-02-19T01:52:53.008Z,66.40
2019-02-19T01:55:27.207Z,65.90
2019-02-19T01:57:58.938Z,65.57
2019-02-19T02:00:30.357Z,65.71
2019-02-19T02:03:01.715Z,65.99
2019-02-19T02:05:33.077Z,65.51
2019-02-19T02:08:04.532Z,65.47
2019-02-19T02:10:35.880Z,64.74
2019-02-19T02:13:07.250Z,64.85
2019-02-19T02:15:42.666Z,64.29
2019-02-19T02:18:11.808Z,64.37
2019-02-19T02:20:43.227Z,64.83
2019-02-19T02:23:14.683Z,64.95
2019-02-19T02:25:46.092Z,64.94
2019-02-19T02:28:17.566Z,64.99
2019-02-19T02:30:48.987Z,64.84
2019-02-19T02:33:20.392Z,65.41
2019-02-19T02:35:51.815Z,65.42
2019-02-19T02:38:23.303Z,66.12
2019-02-19T02:40:55.174Z,66.37
2019-02-19T02:43:26.786Z,66.26
2019-02-19T02:45:58.214Z,66.89
2019-02-19T02:48:29.664Z,67.21
2019-02-19T02:51:01.092Z,66.77
2019-02-19T02:53:32.559Z,67.32
2019-02-19T02:56:03.928Z,68.00
2019-02-19T02:58:35.946Z,67.76
2019-02-19T03:01:10.450Z,67.88
2019-02-19T03:03:53.320Z,68.33
2019-02-19T03:06:39.884Z,68.34
2019-02-19T03:09:14.556Z,68.53
2019-02-19T03:11:47.191Z,68.54
2019-02-19T03:14:21.360Z,69.00
2019-02-19T03:16:57.842Z,69.49
2019-02-19T03:19:29.326Z,69.22
2019-02-19T03:22:00.754Z,68.26
2019-02-19T03:24:32.246Z,69.36
2019-02-19T03:27:03.669Z,69.79
2019-02-19T03:29:35.135Z,70.04
2019-02-19T03:32:06.558Z,70.29
2019-02-19T03:34:38.042Z,70.26
2019-02-19T03:37:09.361Z,69.52
2019-02-19T03:39:40.835Z,69.91
2019-02-19T03:42:12.485Z,69.77
2019-02-19T03:44:43.917Z,69.77
2019-02-19T03:47:15.490Z,70.02
2019-02-19T03:49:48.220Z,69.95
2019-02-19T03:52:21.290Z,69.96
2019-02-19T03:54:52.824Z,70.50
2019-02-19T03:57:24.179Z,70.92
2019-02-19T03:59:55.633Z,71.04
2019-02-19T04:02:27.294Z,71.25
2019-02-19T04:04:58.720Z,71.12
2019-02-19T04:07:30.155Z,71.19
2019-02-19T04:10:01.626Z,71.43
2019-02-19T04:12:34.114Z,71.70
2019-02-19T04:15:05.691Z,71.82
2019-02-19T04:17:37.296Z,71.49
2019-02-19T04:20:09.479Z,70.78
2019-02-19T04:22:41.118Z,71.25
2019-02-19T04:25:12.602Z,70.60
2019-02-19T04:27:43.971Z,71.25
2019-02-19T04:30:15.395Z,71.85
2019-02-19T04:32:46.824Z,71.54
2019-02-19T04:35:18.904Z,71.29
2019-02-19T04:37:50.295Z,71.76
2019-02-19T04:40:21.718Z,71.43
2019-02-19T04:42:53.148Z,70.65
2019-02-19T04:45:24.577Z,71.78
2019-02-19T04:47:58.029Z,71.40
2019-02-19T04:50:29.189Z,70.59
2019-02-19T04:53:00.711Z,70.21
2019-02-19T04:55:32.170Z,69.78
2019-02-19T04:58:03.640Z,69.75
2019-02-19T05:00:35.195Z,69.65
2019-02-19T05:03:06.653Z,69.88
2019-02-19T05:05:39.691Z,69.71
2019-02-19T05:08:11.131Z,69.40
2019-02-19T05:10:42.594Z,69.16
2019-02-19T05:13:15.665Z,70.00
2019-02-19T05:15:47.031Z,70.03
2019-02-19T05:18:18.441Z,69.71
2019-02-19T05:20:51.533Z,70.37
2019-02-19T05:23:22.954Z,70.03
2019-02-19T05:25:54.411Z,70.00
2019-02-19T05:28:25.747Z,70.26
2019-02-19T05:30:57.315Z,70.68
2019-02-19T05:33:28.778Z,70.64
2019-02-19T05:36:00.309Z,71.00
2019-02-19T05:38:31.789Z,70.58
2019-02-19T05:41:03.480Z,70.79
2019-02-19T05:43:34.899Z,71.12
2019-02-19T05:46:06.352Z,71.64
2019-02-19T05:48:37.789Z,71.68
2019-02-19T05:51:09.151Z,72.28
2019-02-19T05:53:40.601Z,71.71
2019-02-19T05:56:12.080Z,72.37
2019-02-19T05:58:43.508Z,72.44
2019-02-19T06:01:14.989Z,72.64
2019-02-19T06:03:46.413Z,72.20
2019-02-19T06:06:17.868Z,71.94
2019-02-19T06:08:49.342Z,71.44
2019-02-19T06:11:23.011Z,72.20
2019-02-19T06:13:54.498Z,72.17
2019-02-19T06:16:26.005Z,71.89
2019-02-19T06:18:58.659Z,71.91
2019-02-19T06:21:30.101Z,72.16
2019-02-19T06:24:01.582Z,72.27
2019-02-19T06:26:33.021Z,72.01
2019-02-19T06:29:04.471Z,72.71
2019-02-19T06:31:35.853Z,72.40
2019-02-19T06:34:07.331Z,71.87
2019-02-19T06:36:38.818Z,71.16
2019-02-19T06:39:10.281Z,69.15
2019-02-19T06:41:46.315Z,69.43
2019-02-19T06:44:21.321Z,70.07
2019-02-19T06:46:54.110Z,71.54
2019-02-19T06:49:25.567Z,71.78
2019-02-19T06:51:57.438Z,72.25
2019-02-19T06:54:29.849Z,71.27
2019-02-19T06:57:03.113Z,70.78
2019-02-19T06:59:34.533Z,71.17
2019-02-19T07:02:42.963Z,70.97
2019-02-19T07:05:19.520Z,70.20
2019-02-19T07:07:50.963Z,69.23
2019-02-19T07:10:23.037Z,66.71
2019-02-19T07:12:57.396Z,62.48
2019-02-19T07:15:30.449Z,60.99
2019-02-19T07:18:01.877Z,60.27
2019-02-19T07:20:35.605Z,63.30
2019-02-19T07:23:08.297Z,62.50
2019-02-19T07:25:39.734Z,63.33
2019-02-19T07:28:11.233Z,61.18
2019-02-19T07:30:42.687Z,62.98
2019-02-19T07:33:14.104Z,62.34
2019-02-19T07:35:45.549Z,62.46
2019-02-19T07:38:17.047Z,63.13
2019-02-19T07:40:48.418Z,62.40
2019-02-19T07:43:19.889Z,61.48
2019-02-19T07:45:52.334Z,53.01
2019-02-19T07:48:26.446Z,52.44
2019-02-19T07:50:57.940Z,57.88
2019-02-19T07:53:29.417Z,58.67
2019-02-19T07:56:00.748Z,59.13
2019-02-19T07:58:32.328Z,58.62
2019-02-19T08:01:03.817Z,55.26
2019-02-19T08:03:35.368Z,49.59
2019-02-19T08:06:06.795Z,52.40
2019-02-19T08:08:38.281Z,53.78
2019-02-19T08:11:09.852Z,53.73
2019-02-19T08:13:41.234Z,52.38
2019-02-19T08:16:12.667Z,54.57
2019-02-19T08:18:45.243Z,54.85
2019-02-19T08:21:16.773Z,54.21
2019-02-19T08:23:48.249Z,53.61
2019-02-19T08:26:19.723Z,54.42
2019-02-19T08:28:51.332Z,52.35
2019-02-19T08:31:24.579Z,50.86
2019-02-19T08:33:57.654Z,45.55
2019-02-19T08:36:30.216Z,49.91
2019-02-19T08:39:01.591Z,51.50
2019-02-19T08:41:34.638Z,52.28
2019-02-19T08:44:06.132Z,49.83
2019-02-19T08:46:37.589Z,44.85
2019-02-19T08:49:09.046Z,48.52
2019-02-19T08:51:40.502Z,48.78
2019-02-19T08:54:13.580Z,44.07
2019-02-19T08:56:47.284Z,44.75
2019-02-19T08:59:19.256Z,44.22
2019-02-19T09:01:52.686Z,44.95
2019-02-19T09:04:24.140Z,46.70
2019-02-19T09:06:55.610Z,44.36
2019-02-19T09:09:27.307Z,43.72
2019-02-19T09:11:58.744Z,45.13
2019-02-19T09:14:30.208Z,44.46
2019-02-19T09:17:01.583Z,45.70
2019-02-19T09:19:33.123Z,44.80
2019-02-19T09:22:04.607Z,44.95
2019-02-19T09:24:36.093Z,44.78
2019-02-19T09:27:07.566Z,41.88
2019-02-19T09:29:39.008Z,38.08
2019-02-19T09:32:15.806Z,39.51
2019-02-19T09:34:48.826Z,40.79
2019-02-19T09:37:20.348Z,42.64
2019-02-19T09:39:55.864Z,41.63
2019-02-19T09:42:29.486Z,42.10
2019-02-19T09:45:07.663Z,42.15
2019-02-19T09:47:45.622Z,41.17
2019-02-19T09:50:17.069Z,41.93
2019-02-19T09:52:59.772Z,42.58
2019-02-19T09:55:40.131Z,42.69
2019-02-19T09:58:27.974Z,42.54
2019-02-19T10:01:00.713Z,41.86
2019-02-19T10:03:38.125Z,41.13
2019-02-19T10:06:13.522Z,41.98
2019-02-19T10:08:49.627Z,40.96
2019-02-19T10:11:26.267Z,42.52
2019-02-19T10:14:09.941Z,43.09
2019-02-19T10:16:42.164Z,42.21
2019-02-19T10:19:14.010Z,41.53
2019-02-19T10:21:45.823Z,40.92
2019-02-19T10:24:17.229Z,38.51
2019-02-19T10:26:49.690Z,39.68
2019-02-19T10:29:21.346Z,38.79
2019-02-19T10:31:52.930Z,40.06
2019-02-19T10:34:24.412Z,41.43
2019-02-19T10:36:55.848Z,41.82
2019-02-19T10:39:27.313Z,41.17
2019-02-19T10:41:58.813Z,41.15
2019-02-19T10:44:30.252Z,40.96
2019-02-19T10:47:05.453Z,41.52
2019-02-19T10:49:36.917Z,41.30
2019-02-19T10:52:08.475Z,41.51
2019-02-19T10:54:39.979Z,41.24
2019-02-19T10:57:11.451Z,40.35
2019-02-19T10:59:42.904Z,41.03
2019-02-19T11:02:16.399Z,41.09
2019-02-19T11:04:49.309Z,40.85
2019-02-19T11:07:20.777Z,40.61
2019-02-19T11:09:55.008Z,40.98
2019-02-19T11:12:26.477Z,40.46
2019-02-19T11:15:00.976Z,41.04
2019-02-19T11:17:32.584Z,41.25
2019-02-19T11:20:04.135Z,40.65
2019-02-19T11:22:35.685Z,41.24
2019-02-19T11:25:09.222Z,41.17
2019-02-19T11:27:40.736Z,42.10
2019-02-19T11:30:15.092Z,41.70
2019-02-19T11:32:46.676Z,41.58
2019-02-19T11:35:18.174Z,41.86
2019-02-19T11:37:49.631Z,42.54
2019-02-19T11:40:21.074Z,43.06
2019-02-19T11:42:52.528Z,42.62
2019-02-19T11:45:23.992Z,42.81
2019-02-19T11:47:55.503Z,43.25
2019-02-19T11:50:26.947Z,43.51
2019-02-19T11:52:58.527Z,43.34
2019-02-19T11:55:31.132Z,43.95
2019-02-19T11:58:02.547Z,44.17
2019-02-19T12:00:39.156Z,43.99
2019-02-19T12:03:10.665Z,43.31
2019-02-19T12:05:42.111Z,43.29
2019-02-19T12:08:15.725Z,43.84
2019-02-19T12:10:47.170Z,43.51
2019-02-19T12:13:18.655Z,43.67
2019-02-19T12:15:50.094Z,43.73
2019-02-19T12:18:21.557Z,43.60
2019-02-19T12:20:53.015Z,44.57
2019-02-19T12:23:24.453Z,44.33
2019-02-19T12:25:55.902Z,44.40
2019-02-19T12:28:27.400Z,44.74
2019-02-19T12:30:58.823Z,44.56
2019-02-19T12:33:30.389Z,44.92
2019-02-19T12:36:01.924Z,44.66
2019-02-19T12:38:33.358Z,44.68
2019-02-19T12:41:04.837Z,44.33
2019-02-19T12:43:36.306Z,44.20
2019-02-19T12:46:07.778Z,42.86
2019-02-19T12:48:44.260Z,44.10
2019-02-19T12:51:15.635Z,43.77
2019-02-19T12:53:49.926Z,44.07
2019-02-19T12:56:28.338Z,43.96
2019-02-19T12:59:11.358Z,44.09
2019-02-19T13:01:44.920Z,43.97
2019-02-19T13:04:20.978Z,43.45
2019-02-19T13:06:56.807Z,43.52
2019-02-19T13:09:33.807Z,43.04
2019-02-19T13:12:18.593Z,41.77
2019-02-19T13:14:52.314Z,41.30
2019-02-19T13:17:25.223Z,41.35
2019-02-19T13:19:58.221Z,41.02
2019-02-19T13:22:29.671Z,40.74
2019-02-19T13:25:01.111Z,40.08
2019-02-19T13:27:32.553Z,39.86
2019-02-19T13:30:04.051Z,40.23
2019-02-19T13:32:37.145Z,39.63
2019-02-19T13:35:09.575Z,39.50
2019-02-19T13:37:41.032Z,39.88
2019-02-19T13:40:13.389Z,40.16
2019-02-19T13:42:44.832Z,40.11
2019-02-19T13:45:16.302Z,39.51
2019-02-19T13:47:47.844Z,40.01
2019-02-19T13:50:21.111Z,40.12
2019-02-19T13:53:02.631Z,40.75
2019-02-19T13:55:38.222Z,41.40
2019-02-19T13:58:09.653Z,41.41
2019-02-19T14:00:42.937Z,41.68
2019-02-19T14:03:14.434Z,41.17
2019-02-19T14:05:45.909Z,41.06
2019-02-19T14:08:17.366Z,41.72
2019-02-19T14:10:48.825Z,41.20
2019-02-19T14:13:20.471Z,41.59
2019-02-19T14:15:58.912Z,41.87
2019-02-19T14:18:48.081Z,41.75
2019-02-19T14:21:38.410Z,41.75
2019-02-19T14:24:27.328Z,42.38
2019-02-19T14:27:08.110Z,41.78
2019-02-19T14:30:07.585Z,42.13
2019-02-19T14:32:56.947Z,41.87
2019-02-19T14:35:56.415Z,42.85
2019-02-19T14:38:53.738Z,43.28
2019-02-19T14:41:46.888Z,43.31
2019-02-19T14:44:36.226Z,43.16
2019-02-19T14:47:25.472Z,43.54
2019-02-19T14:50:12.856Z,44.15
2019-02-19T14:52:56.314Z,43.95
2019-02-19T14:55:45.507Z,44.56
2019-02-19T14:58:38.842Z,44.88
2019-02-19T15:01:35.550Z,45.36
2019-02-19T15:04:25.893Z,45.23
2019-02-19T15:07:09.576Z,45.18
2019-02-19T15:10:02.722Z,45.30
2019-02-19T15:12:53.535Z,45.11
2019-02-19T15:15:46.631Z,45.31
2019-02-19T15:18:46.065Z,45.31
2019-02-19T15:21:32.386Z,45.05
2019-02-19T15:24:29.125Z,45.92
2019-02-19T15:27:06.654Z,46.39
2019-02-19T15:29:54.352Z,45.82
2019-02-19T15:32:50.468Z,46.19
2019-02-19T15:35:39.585Z,46.90
2019-02-19T15:38:29.936Z,47.09
2019-02-19T15:41:23.172Z,47.54
2019-02-19T15:44:06.045Z,47.42
2019-02-19T15:46:56.313Z,46.84
2019-02-19T15:49:47.900Z,47.07
2019-02-19T15:52:41.029Z,47.27
2019-02-19T15:55:30.386Z,47.58
2019-02-19T15:58:22.101Z,47.72
2019-02-19T16:01:11.471Z,48.11
2019-02-19T16:03:52.220Z,48.62
2019-02-19T16:06:29.108Z,49.51
2019-02-19T16:09:18.131Z,50.21
2019-02-19T16:12:14.508Z,50.08
2019-02-19T16:15:03.527Z,50.29
2019-02-19T16:17:53.934Z,50.82
2019-02-19T16:20:47.278Z,50.90
2019-02-19T16:23:43.911Z,51.32
2019-02-19T16:26:37.307Z,51.16
2019-02-19T16:29:34.824Z,51.25
2019-02-19T16:32:35.797Z,51.35
2019-02-19T16:38:51.648Z,51.97
2019-02-19T16:41:56.628Z,52.27
2019-02-19T16:45:06.690Z,52.50
2019-02-19T16:48:06.790Z,52.19
2019-02-19T16:50:56.566Z,52.50
2019-02-19T16:53:57.388Z,52.69
2019-02-19T16:57:08.111Z,52.79
2019-02-19T17:00:07.459Z,53.16
2019-02-19T17:03:05.762Z,53.20
2019-02-19T17:06:03.930Z,53.23
2019-02-19T17:08:45.600Z,53.10
2019-02-19T17:11:29.764Z,53.69
2019-02-19T17:14:33.253Z,53.81
2019-02-19T17:17:39.357Z,54.16
2019-02-19T17:20:39.697Z,54.10
2019-02-19T17:23:46.352Z,54.42
2019-02-19T17:26:31.670Z,54.51
2019-02-19T17:29:28.228Z,54.83
2019-02-19T17:32:17.177Z,54.75
2019-02-19T17:35:01.846Z,55.14
2019-02-19T17:38:00.874Z,55.20
2019-02-19T17:41:03.442Z,54.94
2019-02-19T17:43:49.100Z,55.33
2019-02-19T17:46:35.505Z,56.05
2019-02-19T17:49:27.757Z,56.33
2019-02-19T17:52:08.448Z,56.25
2019-02-19T17:54:47.228Z,56.81
2019-02-19T17:57:36.654Z,56.88
2019-02-19T18:00:30.167Z,57.13
2019-02-19T18:03:24.553Z,57.43
2019-02-19T18:06:22.922Z,57.46
2019-02-19T18:09:15.770Z,57.40
2019-02-19T18:12:19.069Z,57.24
2019-02-19T18:15:05.187Z,57.45
2019-02-19T18:17:57.977Z,57.76
2019-02-19T18:20:32.967Z,57.84
2019-02-19T18:23:06.666Z,57.67
2019-02-19T18:25:40.009Z,57.68
2019-02-19T18:28:12.857Z,58.48
2019-02-19T18:30:46.355Z,58.60
2019-02-19T18:33:23.205Z,58.34
2019-02-19T18:36:00.016Z,57.93
2019-02-19T18:38:41.350Z,58.43
2019-02-19T18:41:19.467Z,58.22
2019-02-19T18:43:53.998Z,57.79
2019-02-19T18:46:28.962Z,57.94
2019-02-19T18:49:00.395Z,57.61
2019-02-19T18:51:31.829Z,57.23
2019-02-19T18:54:03.301Z,57.30
2019-02-19T18:56:34.818Z,56.83
2019-02-19T18:59:07.540Z,57.72
2019-02-19T19:01:40.608Z,57.87
2019-02-19T19:04:12.079Z,58.08
2019-02-19T19:06:43.507Z,58.42
2019-02-19T19:09:14.959Z,58.68
2019-02-19T19:11:46.382Z,58.71
2019-02-19T19:14:17.831Z,59.14
2019-02-19T19:16:49.259Z,59.03
2019-02-19T19:19:20.732Z,59.15
2019-02-19T19:21:52.242Z,59.37
2019-02-19T19:24:23.712Z,59.74
2019-02-19T19:26:55.146Z,59.89
2019-02-19T19:29:26.581Z,59.76
2019-02-19T19:31:58.019Z,59.91
2019-02-19T19:34:29.491Z,60.50
2019-02-19T19:37:00.919Z,60.50
2019-02-19T19:39:34.864Z,60.85
2019-02-19T19:42:06.328Z,61.01
2019-02-19T19:44:37.794Z,61.54
2019-02-19T19:47:09.257Z,61.73
2019-02-19T19:49:40.721Z,62.22
2019-02-19T19:52:12.155Z,63.07
2019-02-19T19:54:43.631Z,63.44
2019-02-19T19:57:15.075Z,64.05
2019-02-19T19:59:46.651Z,64.59
2019-02-19T20:02:20.909Z,64.76
2019-02-19T20:05:02.977Z,64.81
2019-02-19T20:07:36.584Z,65.29
2019-02-19T20:10:10.068Z,67.08
2019-02-19T20:12:41.544Z,67.69
2019-02-19T20:15:13.581Z,69.65
2019-02-19T20:17:45.140Z,69.12
2019-02-19T20:20:16.607Z,70.76
2019-02-19T20:22:48.028Z,71.04
2019-02-19T20:25:19.498Z,71.47
2019-02-19T20:27:51.004Z,72.39
2019-02-19T20:30:22.485Z,72.56
2019-02-19T20:32:54.017Z,73.47
2019-02-19T20:35:25.548Z,73.72
2019-02-19T20:37:57.035Z,73.86
2019-02-19T20:40:28.465Z,73.73
2019-02-19T20:42:59.957Z,74.23
2019-02-19T20:45:33.287Z,74.20
2019-02-19T20:48:04.758Z,73.94
2019-02-19T20:50:36.307Z,74.57
2019-02-19T20:53:07.783Z,75.14
2019-02-19T20:55:39.740Z,75.71
2019-02-19T20:58:11.336Z,76.90
2019-02-19T21:00:46.783Z,76.86
2019-02-19T21:03:19.929Z,76.64
2019-02-19T21:05:54.529Z,77.09
2019-02-19T21:08:30.377Z,77.90
2019-02-19T21:11:01.894Z,79.43
2019-02-19T21:13:33.411Z,78.88
2019-02-19T21:16:04.926Z,79.52
2019-02-19T21:18:36.522Z,79.31
2019-02-19T21:21:08.047Z,79.01
2019-02-19T21:23:41.509Z,78.11
2019-02-19T21:26:18.173Z,77.87
2019-02-19T21:28:55.831Z,78.03
2019-02-19T21:31:26.670Z,78.27
2019-02-19T21:34:01.016Z,77.74
2019-02-19T21:36:37.425Z,77.83
2019-02-19T21:39:12.827Z,77.91
2019-02-19T21:41:51.826Z,77.67
2019-02-19T21:44:25.501Z,78.23
2019-02-19T21:47:00.881Z,78.08
2019-02-19T21:49:35.561Z,77.93
2019-02-19T21:52:07.485Z,78.13
2019-02-19T21:54:39.003Z,78.13
2019-02-19T21:57:10.422Z,78.51
2019-02-19T21:59:41.881Z,78.39
2019-02-19T22:02:16.434Z,78.09
2019-02-19T22:04:47.579Z,78.73
2019-02-19T22:07:19.053Z,78.77
2019-02-19T22:09:55.535Z,78.63
2019-02-19T22:12:26.067Z,79.04
2019-02-19T22:14:57.489Z,79.60
2019-02-19T22:17:29.977Z,79.10
2019-02-19T22:20:03.732Z,78.62
2019-02-19T22:22:36.755Z,78.58
2019-02-19T22:25:08.267Z,78.74
2019-02-19T22:27:39.686Z,78.72
2019-02-19T22:30:11.649Z,78.53
2019-02-19T22:32:43.045Z,78.54
2019-02-19T22:35:14.477Z,78.55
2019-02-19T22:37:45.901Z,78.71
2019-02-19T22:40:17.338Z,79.27
2019-02-19T22:42:48.819Z,79.08
2019-02-19T22:45:24.454Z,79.27
2019-02-19T22:47:55.881Z,78.50
2019-02-19T22:50:27.306Z,78.35
2019-02-19T22:52:58.709Z,78.54
2019-02-19T22:55:54.925Z,78.53
2019-02-19T22:58:26.255Z,78.47
2019-02-19T23:01:23.183Z,78.69
2019-02-19T23:03:57.765Z,79.00
2019-02-19T23:06:29.211Z,78.54
2019-02-19T23:09:00.579Z,78.55
2019-02-19T23:11:33.635Z,78.43
2019-02-19T23:14:04.995Z,79.17
2019-02-19T23:16:36.609Z,78.83
2019-02-19T23:19:08.078Z,78.95
2019-02-19T23:21:39.500Z,78.37
2019-02-19T23:24:10.989Z,78.40
2019-02-19T23:26:42.341Z,78.29
2019-02-19T23:29:13.808Z,78.12
2019-02-19T23:31:45.310Z,78.09
2019-02-19T23:34:16.659Z,78.05
2019-02-19T23:36:54.105Z,78.29
2019-02-19T23:39:25.427Z,78.08
2019-02-19T23:41:58.620Z,78.40
2019-02-19T23:44:29.966Z,78.35
2019-02-19T23:47:03.875Z,78.40
2019-02-19T23:49:38.387Z,78.41
2019-02-19T23:52:09.835Z,78.55
2019-02-19T23:54:41.251Z,78.55
2019-02-19T23:57:12.629Z,79.05
2019-02-19T23:59:43.964Z,79.03
